sensor_id;sensor_type;location;lat;lon;timestamp;pressure;altitude;pressure_sealevel;temperature;humidity
63321;BME280;49449;48.800;9.534;2022-11-20T00:01:05;98046.59;;;7.22;47.12
63321;BME280;49449;48.800;9.534;2022-11-20T00:03:34;98044.41;;;7.19;47.19
63321;BME280;49449;48.800;9.534;2022-11-20T00:06:04;98044.81;;;7.16;47.25
63321;BME280;49449;48.800;9.534;2022-11-20T00:08:32;98042.56;;;7.20;47.14
63321;BME280;49449;48.800;9.534;2022-11-20T00:11:04;98038.50;;;6.99;47.15
63321;BME280;49449;48.800;9.534;2022-11-20T00:13:32;98041.56;;;6.96;47.04
63321;BME280;49449;48.800;9.534;2022-11-20T00:16:02;98043.22;;;6.90;47.05
63321;BME280;49449;48.800;9.534;2022-11-20T00:18:30;98052.38;;;6.88;46.81
63321;BME280;49449;48.800;9.534;2022-11-20T00:21:03;98039.69;;;6.78;47.38
63321;BME280;49449;48.800;9.534;2022-11-20T00:23:31;98049.00;;;6.80;46.98
63321;BME280;49449;48.800;9.534;2022-11-20T00:26:02;98052.06;;;6.71;47.56
63321;BME280;49449;48.800;9.534;2022-11-20T00:28:32;98051.44;;;6.75;47.26
63321;BME280;49449;48.800;9.534;2022-11-20T00:31:01;98054.88;;;6.76;47.62
63321;BME280;49449;48.800;9.534;2022-11-20T00:33:30;98051.63;;;6.80;47.52
63321;BME280;49449;48.800;9.534;2022-11-20T00:36:02;98054.41;;;6.86;47.54
63321;BME280;49449;48.800;9.534;2022-11-20T00:38:30;98047.91;;;6.88;47.18
63321;BME280;49449;48.800;9.534;2022-11-20T00:40:59;98051.81;;;6.79;47.32
63321;BME280;49449;48.800;9.534;2022-11-20T00:43:27;98045.13;;;6.83;47.33
63321;BME280;49449;48.800;9.534;2022-11-20T00:45:58;98052.78;;;6.84;47.61
63321;BME280;49449;48.800;9.534;2022-11-20T00:48:26;98044.69;;;6.86;47.18
63321;BME280;49449;48.800;9.534;2022-11-20T00:50:55;98054.19;;;6.87;47.53
63321;BME280;49449;48.800;9.534;2022-11-20T00:53:23;98048.50;;;6.90;47.71
63321;BME280;49449;48.800;9.534;2022-11-20T00:55:55;98035.72;;;6.94;47.39
63321;BME280;49449;48.800;9.534;2022-11-20T00:58:24;98047.44;;;6.98;47.04
63321;BME280;49449;48.800;9.534;2022-11-20T01:01:13;98052.84;;;7.03;47.05
63321;BME280;49449;48.800;9.534;2022-11-20T01:03:52;98060.53;;;7.23;46.66
63321;BME280;49449;48.800;9.534;2022-11-20T01:06:29;98063.00;;;7.36;46.39
63321;BME280;49449;48.800;9.534;2022-11-20T01:09:03;98057.25;;;7.46;46.06
63321;BME280;49449;48.800;9.534;2022-11-20T01:11:37;98060.81;;;7.52;45.55
63321;BME280;49449;48.800;9.534;2022-11-20T01:14:24;98067.66;;;7.59;45.62
63321;BME280;49449;48.800;9.534;2022-11-20T01:16:58;98069.66;;;7.57;45.04
63321;BME280;49449;48.800;9.534;2022-11-20T01:19:26;98070.13;;;7.54;46.11
63321;BME280;49449;48.800;9.534;2022-11-20T01:21:54;98065.72;;;7.48;46.00
63321;BME280;49449;48.800;9.534;2022-11-20T01:24:22;98067.03;;;7.39;46.15
63321;BME280;49449;48.800;9.534;2022-11-20T01:26:51;98065.41;;;7.38;46.62
63321;BME280;49449;48.800;9.534;2022-11-20T01:29:20;98070.31;;;7.34;46.27
63321;BME280;49449;48.800;9.534;2022-11-20T01:31:49;98075.41;;;7.29;46.53
63321;BME280;49449;48.800;9.534;2022-11-20T01:34:19;98069.94;;;7.31;46.79
63321;BME280;49449;48.800;9.534;2022-11-20T01:36:48;98076.22;;;7.30;46.73
63321;BME280;49449;48.800;9.534;2022-11-20T01:39:18;98069.94;;;7.31;46.82
63321;BME280;49449;48.800;9.534;2022-11-20T01:41:48;98070.97;;;7.30;46.26
63321;BME280;49449;48.800;9.534;2022-11-20T01:44:48;98073.06;;;7.21;46.31
63321;BME280;49449;48.800;9.534;2022-11-20T01:47:18;98073.28;;;7.19;46.06
63321;BME280;49449;48.800;9.534;2022-11-20T01:49:51;98072.50;;;7.19;46.46
63321;BME280;49449;48.800;9.534;2022-11-20T01:52:23;98078.13;;;7.22;46.53
63321;BME280;49449;48.800;9.534;2022-11-20T01:54:54;98063.94;;;7.23;46.23
63321;BME280;49449;48.800;9.534;2022-11-20T01:57:25;98069.19;;;7.23;46.63
63321;BME280;49449;48.800;9.534;2022-11-20T01:59:58;98070.00;;;7.24;45.78
63321;BME280;49449;48.800;9.534;2022-11-20T02:02:27;98078.13;;;7.22;46.25
63321;BME280;49449;48.800;9.534;2022-11-20T02:05:02;98068.41;;;7.23;46.39
63321;BME280;49449;48.800;9.534;2022-11-20T02:07:32;98074.03;;;7.27;46.20
63321;BME280;49449;48.800;9.534;2022-11-20T02:10:00;98071.63;;;7.25;46.67
63321;BME280;49449;48.800;9.534;2022-11-20T02:12:28;98074.63;;;7.29;46.21
63321;BME280;49449;48.800;9.534;2022-11-20T02:15:13;98073.03;;;7.28;46.56
63321;BME280;49449;48.800;9.534;2022-11-20T02:17:41;98069.78;;;7.26;46.49
63321;BME280;49449;48.800;9.534;2022-11-20T02:20:11;98058.31;;;7.20;46.60
63321;BME280;49449;48.800;9.534;2022-11-20T02:22:47;98070.00;;;7.24;46.21
63321;BME280;49449;48.800;9.534;2022-11-20T02:25:19;98073.25;;;7.26;46.51
63321;BME280;49449;48.800;9.534;2022-11-20T02:27:47;98063.94;;;7.23;46.30
63321;BME280;49449;48.800;9.534;2022-11-20T02:30:15;98063.22;;;7.16;45.61
63321;BME280;49449;48.800;9.534;2022-11-20T02:32:43;98066.34;;;7.07;46.07
63321;BME280;49449;48.800;9.534;2022-11-20T02:35:39;98060.81;;;6.90;46.11
63321;BME280;49449;48.800;9.534;2022-11-20T02:38:07;98068.88;;;6.95;46.49
63321;BME280;49449;48.800;9.534;2022-11-20T02:40:36;98069.66;;;6.95;46.45
63321;BME280;49449;48.800;9.534;2022-11-20T02:43:04;98065.19;;;6.96;46.71
63321;BME280;49449;48.800;9.534;2022-11-20T02:45:32;98063.59;;;6.95;46.36
63321;BME280;49449;48.800;9.534;2022-11-20T02:48:00;98065.00;;;6.97;46.59
63321;BME280;49449;48.800;9.534;2022-11-20T02:50:27;98071.06;;;6.98;45.57
63321;BME280;49449;48.800;9.534;2022-11-20T02:52:55;98065.81;;;6.98;46.80
63321;BME280;49449;48.800;9.534;2022-11-20T02:55:23;98062.53;;;7.02;46.67
63321;BME280;49449;48.800;9.534;2022-11-20T02:57:52;98062.09;;;7.06;46.67
63321;BME280;49449;48.800;9.534;2022-11-20T03:00:20;98071.59;;;7.07;46.51
63321;BME280;49449;48.800;9.534;2022-11-20T03:02:48;98067.34;;;7.06;46.37
63321;BME280;49449;48.800;9.534;2022-11-20T03:05:15;98073.63;;;7.04;46.55
63321;BME280;49449;48.800;9.534;2022-11-20T03:07:43;98064.72;;;7.06;47.09
63321;BME280;49449;48.800;9.534;2022-11-20T03:10:11;98069.97;;;7.06;47.54
63321;BME280;49449;48.800;9.534;2022-11-20T03:12:39;98068.16;;;7.06;46.70
63321;BME280;49449;48.800;9.534;2022-11-20T03:15:09;98070.34;;;7.09;46.93
63321;BME280;49449;48.800;9.534;2022-11-20T03:17:36;98071.97;;;7.10;46.68
63321;BME280;49449;48.800;9.534;2022-11-20T03:20:05;98069.94;;;7.12;45.83
63321;BME280;49449;48.800;9.534;2022-11-20T03:22:33;98068.97;;;7.07;46.10
63321;BME280;49449;48.800;9.534;2022-11-20T03:25:01;98061.09;;;7.07;46.39
63321;BME280;49449;48.800;9.534;2022-11-20T03:27:32;98059.84;;;7.09;46.26
63321;BME280;49449;48.800;9.534;2022-11-20T03:30:00;98057.22;;;7.09;45.95
63321;BME280;49449;48.800;9.534;2022-11-20T03:32:29;98063.25;;;7.10;46.14
63321;BME280;49449;48.800;9.534;2022-11-20T03:34:57;98063.72;;;7.07;45.88
63321;BME280;49449;48.800;9.534;2022-11-20T03:37:24;98063.34;;;7.03;45.90
63321;BME280;49449;48.800;9.534;2022-11-20T03:39:52;98067.56;;;7.04;45.93
63321;BME280;49449;48.800;9.534;2022-11-20T03:42:20;98067.13;;;7.07;46.17
63321;BME280;49449;48.800;9.534;2022-11-20T03:45:06;98060.44;;;7.11;46.00
63321;BME280;49449;48.800;9.534;2022-11-20T03:47:35;98059.91;;;7.02;46.06
63321;BME280;49449;48.800;9.534;2022-11-20T03:50:03;98057.47;;;7.01;45.58
63321;BME280;49449;48.800;9.534;2022-11-20T03:52:31;98061.16;;;7.00;46.59
63321;BME280;49449;48.800;9.534;2022-11-20T03:54:59;98054.66;;;7.02;45.14
63321;BME280;49449;48.800;9.534;2022-11-20T03:57:27;98049.97;;;7.04;45.97
63321;BME280;49449;48.800;9.534;2022-11-20T03:59:54;98052.19;;;7.08;45.84
63321;BME280;49449;48.800;9.534;2022-11-20T04:02:22;98044.00;;;6.72;45.20
63321;BME280;49449;48.800;9.534;2022-11-20T04:04:51;98045.69;;;6.85;44.72
63321;BME280;49449;48.800;9.534;2022-11-20T04:07:19;98049.00;;;6.80;44.32
63321;BME280;49449;48.800;9.534;2022-11-20T04:09:47;98056.81;;;6.55;44.17
63321;BME280;49449;48.800;9.534;2022-11-20T04:12:15;98055.78;;;6.63;44.57
63321;BME280;49449;48.800;9.534;2022-11-20T04:14:42;98055.94;;;6.68;44.16
63321;BME280;49449;48.800;9.534;2022-11-20T04:17:10;98051.28;;;6.70;43.75
63321;BME280;49449;48.800;9.534;2022-11-20T04:19:38;98047.31;;;6.61;43.87
63321;BME280;49449;48.800;9.534;2022-11-20T04:22:07;98049.19;;;6.54;44.48
63321;BME280;49449;48.800;9.534;2022-11-20T04:24:35;98051.66;;;6.03;43.31
63321;BME280;49449;48.800;9.534;2022-11-20T04:27:03;98046.78;;;6.14;45.36
63321;BME280;49449;48.800;9.534;2022-11-20T04:29:30;98050.97;;;6.21;43.69
63321;BME280;49449;48.800;9.534;2022-11-20T04:31:58;98057.97;;;5.96;44.84
63321;BME280;49449;48.800;9.534;2022-11-20T04:34:26;98041.78;;;5.60;45.04
63321;BME280;49449;48.800;9.534;2022-11-20T04:36:53;98041.63;;;5.48;45.03
63321;BME280;49449;48.800;9.534;2022-11-20T04:39:23;98043.63;;;5.53;44.77
63321;BME280;49449;48.800;9.534;2022-11-20T04:41:50;98042.91;;;4.92;46.41
63321;BME280;49449;48.800;9.534;2022-11-20T04:44:38;98040.50;;;4.98;46.07
63321;BME280;49449;48.800;9.534;2022-11-20T04:47:06;98036.88;;;4.72;46.98
63321;BME280;49449;48.800;9.534;2022-11-20T04:49:34;98031.41;;;5.13;46.00
63321;BME280;49449;48.800;9.534;2022-11-20T04:52:02;98035.66;;;5.14;46.15
63321;BME280;49449;48.800;9.534;2022-11-20T04:54:31;98034.88;;;4.94;46.50
63321;BME280;49449;48.800;9.534;2022-11-20T04:56:58;98038.63;;;4.38;47.00
63321;BME280;49449;48.800;9.534;2022-11-20T04:59:26;98040.28;;;4.99;46.48
63321;BME280;49449;48.800;9.534;2022-11-20T05:01:54;98036.25;;;5.23;45.72
63321;BME280;49449;48.800;9.534;2022-11-20T05:04:22;98044.94;;;5.04;46.19
63321;BME280;49449;48.800;9.534;2022-11-20T05:06:50;98045.28;;;4.54;46.84
63321;BME280;49449;48.800;9.534;2022-11-20T05:09:17;98035.63;;;4.34;47.66
63321;BME280;49449;48.800;9.534;2022-11-20T05:11:46;98040.03;;;4.34;47.64
63321;BME280;49449;48.800;9.534;2022-11-20T05:14:16;98044.13;;;4.63;46.72
63321;BME280;49449;48.800;9.534;2022-11-20T05:16:44;98036.06;;;4.78;46.64
63321;BME280;49449;48.800;9.534;2022-11-20T05:19:12;98040.44;;;4.24;47.66
63321;BME280;49449;48.800;9.534;2022-11-20T05:21:40;98044.06;;;4.43;46.99
63321;BME280;49449;48.800;9.534;2022-11-20T05:24:08;98046.13;;;4.81;46.29
63321;BME280;49449;48.800;9.534;2022-11-20T05:26:35;98031.41;;;5.20;46.29
63321;BME280;49449;48.800;9.534;2022-11-20T05:29:04;98041.22;;;5.45;45.98
63321;BME280;49449;48.800;9.534;2022-11-20T05:31:32;98039.13;;;5.67;45.51
63321;BME280;49449;48.800;9.534;2022-11-20T05:34:00;98042.69;;;5.79;45.56
63321;BME280;49449;48.800;9.534;2022-11-20T05:36:28;98044.22;;;6.00;44.75
63321;BME280;49449;48.800;9.534;2022-11-20T05:38:55;98041.34;;;6.15;44.86
63321;BME280;49449;48.800;9.534;2022-11-20T05:41:26;98041.84;;;6.31;45.10
63321;BME280;49449;48.800;9.534;2022-11-20T05:43:56;98045.94;;;6.20;44.63
63321;BME280;49449;48.800;9.534;2022-11-20T05:46:25;98040.22;;;5.91;44.21
63321;BME280;49449;48.800;9.534;2022-11-20T05:48:54;98038.94;;;6.07;44.24
63321;BME280;49449;48.800;9.534;2022-11-20T05:51:23;98042.69;;;6.24;43.56
63321;BME280;49449;48.800;9.534;2022-11-20T05:53:51;98035.81;;;6.23;43.28
63321;BME280;49449;48.800;9.534;2022-11-20T05:56:20;98032.56;;;6.28;44.09
63321;BME280;49449;48.800;9.534;2022-11-20T05:58:48;98032.59;;;6.21;44.51
63321;BME280;49449;48.800;9.534;2022-11-20T06:01:18;98042.53;;;6.13;43.92
63321;BME280;49449;48.800;9.534;2022-11-20T06:03:48;98035.13;;;6.09;43.28
63321;BME280;49449;48.800;9.534;2022-11-20T06:06:17;98029.03;;;5.70;43.97
63321;BME280;49449;48.800;9.534;2022-11-20T06:08:45;98034.28;;;6.09;43.89
63321;BME280;49449;48.800;9.534;2022-11-20T06:11:14;98041.91;;;6.17;43.20
63321;BME280;49449;48.800;9.534;2022-11-20T06:13:42;98029.59;;;6.18;43.58
63321;BME280;49449;48.800;9.534;2022-11-20T06:16:11;98029.19;;;6.21;43.03
63321;BME280;49449;48.800;9.534;2022-11-20T06:18:40;98031.94;;;6.01;43.18
63321;BME280;49449;48.800;9.534;2022-11-20T06:21:11;98027.75;;;5.86;43.42
63321;BME280;49449;48.800;9.534;2022-11-20T06:23:40;98032.41;;;5.84;44.04
63321;BME280;49449;48.800;9.534;2022-11-20T06:26:10;98035.59;;;5.86;43.09
63321;BME280;49449;48.800;9.534;2022-11-20T06:28:39;98032.44;;;5.78;43.48
63321;BME280;49449;48.800;9.534;2022-11-20T06:31:07;98039.38;;;5.52;44.07
63321;BME280;49449;48.800;9.534;2022-11-20T06:33:37;98025.00;;;5.68;44.33
63321;BME280;49449;48.800;9.534;2022-11-20T06:36:05;98030.72;;;5.97;44.83
63321;BME280;49449;48.800;9.534;2022-11-20T06:38:37;98029.94;;;5.96;43.56
63321;BME280;49449;48.800;9.534;2022-11-20T06:41:06;98041.41;;;5.50;44.34
63321;BME280;49449;48.800;9.534;2022-11-20T06:43:34;98037.63;;;5.32;44.28
63321;BME280;49449;48.800;9.534;2022-11-20T06:46:02;98035.81;;;5.33;44.72
63321;BME280;49449;48.800;9.534;2022-11-20T06:48:30;98027.59;;;5.16;44.82
63321;BME280;49449;48.800;9.534;2022-11-20T06:50:58;98036.25;;;5.17;44.99
63321;BME280;49449;48.800;9.534;2022-11-20T06:53:26;98036.25;;;5.17;45.09
63321;BME280;49449;48.800;9.534;2022-11-20T06:55:56;98053.75;;;4.89;45.75
63321;BME280;49449;48.800;9.534;2022-11-20T06:58:26;98034.03;;;5.07;44.98
63321;BME280;49449;48.800;9.534;2022-11-20T07:00:57;98038.88;;;5.17;44.77
63321;BME280;49449;48.800;9.534;2022-11-20T07:03:26;98053.34;;;4.66;46.12
63321;BME280;49449;48.800;9.534;2022-11-20T07:05:54;98052.97;;;4.75;45.84
63321;BME280;49449;48.800;9.534;2022-11-20T07:08:22;98048.13;;;4.66;45.81
63321;BME280;49449;48.800;9.534;2022-11-20T07:10:50;98050.34;;;4.82;45.66
63321;BME280;49449;48.800;9.534;2022-11-20T07:13:19;98049.94;;;4.72;46.23
63321;BME280;49449;48.800;9.534;2022-11-20T07:15:47;98048.94;;;4.53;46.67
63321;BME280;49449;48.800;9.534;2022-11-20T07:18:15;98041.28;;;4.58;46.46
63321;BME280;49449;48.800;9.534;2022-11-20T07:20:43;98043.66;;;4.33;47.11
63321;BME280;49449;48.800;9.534;2022-11-20T07:23:11;98049.69;;;4.27;47.22
63321;BME280;49449;48.800;9.534;2022-11-20T07:25:38;98058.56;;;4.39;46.37
63321;BME280;49449;48.800;9.534;2022-11-20T07:28:06;98059.38;;;4.39;46.76
63321;BME280;49449;48.800;9.534;2022-11-20T07:30:35;98059.75;;;4.23;47.05
63321;BME280;49449;48.800;9.534;2022-11-20T07:33:03;98065.22;;;4.48;46.49
63321;BME280;49449;48.800;9.534;2022-11-20T07:35:33;98052.94;;;4.42;46.13
63321;BME280;49449;48.800;9.534;2022-11-20T07:38:02;98059.41;;;4.60;46.44
63321;BME280;49449;48.800;9.534;2022-11-20T07:40:30;98067.06;;;4.88;45.98
63321;BME280;49449;48.800;9.534;2022-11-20T07:42:57;98053.56;;;4.84;45.71
63321;BME280;49449;48.800;9.534;2022-11-20T07:45:25;98056.16;;;4.37;46.35
63321;BME280;49449;48.800;9.534;2022-11-20T07:47:54;98060.25;;;5.00;45.71
63321;BME280;49449;48.800;9.534;2022-11-20T07:50:22;98059.41;;;4.86;45.55
63321;BME280;49449;48.800;9.534;2022-11-20T07:52:50;98058.59;;;4.72;46.18
63321;BME280;49449;48.800;9.534;2022-11-20T07:55:18;98059.22;;;5.14;45.30
63321;BME280;49449;48.800;9.534;2022-11-20T07:57:46;98069.22;;;5.51;45.73
63321;BME280;49449;48.800;9.534;2022-11-20T08:00:21;98063.81;;;5.39;44.56
63321;BME280;49449;48.800;9.534;2022-11-20T08:02:49;98059.81;;;5.10;45.11
63321;BME280;49449;48.800;9.534;2022-11-20T08:05:18;98071.09;;;5.24;45.13
63321;BME280;49449;48.800;9.534;2022-11-20T08:07:46;98068.50;;;5.04;45.23
63321;BME280;49449;48.800;9.534;2022-11-20T08:10:15;98070.28;;;4.90;45.57
63321;BME280;49449;48.800;9.534;2022-11-20T08:12:44;98090.84;;;5.06;45.09
63321;BME280;49449;48.800;9.534;2022-11-20T08:15:29;98070.72;;;4.93;45.40
63321;BME280;49449;48.800;9.534;2022-11-20T08:18:02;98058.78;;;5.31;45.03
63321;BME280;49449;48.800;9.534;2022-11-20T08:20:52;98078.34;;;5.28;45.32
63321;BME280;49449;48.800;9.534;2022-11-20T08:23:19;98073.31;;;5.07;44.82
63321;BME280;49449;48.800;9.534;2022-11-20T08:25:49;98073.28;;;4.60;46.51
63321;BME280;49449;48.800;9.534;2022-11-20T08:28:18;98086.00;;;5.03;46.19
63321;BME280;49449;48.800;9.534;2022-11-20T08:30:47;98081.59;;;4.90;45.92
63321;BME280;49449;48.800;9.534;2022-11-20T08:33:14;98087.78;;;4.89;46.03
63321;BME280;49449;48.800;9.534;2022-11-20T08:35:43;98094.28;;;4.93;46.30
63321;BME280;49449;48.800;9.534;2022-11-20T08:38:13;98093.22;;;5.48;46.55
63321;BME280;49449;48.800;9.534;2022-11-20T08:40:40;98084.69;;;5.66;44.83
63321;BME280;49449;48.800;9.534;2022-11-20T08:43:28;98089.66;;;5.94;44.45
63321;BME280;49449;48.800;9.534;2022-11-20T08:45:56;98085.94;;;6.08;44.23
63321;BME280;49449;48.800;9.534;2022-11-20T08:48:24;98091.56;;;6.19;43.81
63321;BME280;49449;48.800;9.534;2022-11-20T08:50:51;98092.69;;;6.36;44.64
63321;BME280;49449;48.800;9.534;2022-11-20T08:53:21;98095.41;;;6.55;43.90
63321;BME280;49449;48.800;9.534;2022-11-20T08:55:48;98087.16;;;6.51;43.97
63321;BME280;49449;48.800;9.534;2022-11-20T08:58:16;98090.31;;;6.60;43.84
63321;BME280;49449;48.800;9.534;2022-11-20T09:00:44;98083.34;;;6.47;43.13
63321;BME280;49449;48.800;9.534;2022-11-20T09:03:12;98085.06;;;6.60;43.70
63321;BME280;49449;48.800;9.534;2022-11-20T09:05:39;98083.88;;;6.62;43.68
63321;BME280;49449;48.800;9.534;2022-11-20T09:08:07;98079.44;;;6.56;43.05
63321;BME280;49449;48.800;9.534;2022-11-20T09:10:36;98085.38;;;6.45;43.00
63321;BME280;49449;48.800;9.534;2022-11-20T09:13:06;98079.28;;;6.51;44.31
63321;BME280;49449;48.800;9.534;2022-11-20T09:15:34;98083.22;;;6.67;43.83
63321;BME280;49449;48.800;9.534;2022-11-20T09:18:03;98086.59;;;6.74;43.02
63321;BME280;49449;48.800;9.534;2022-11-20T09:20:31;98081.38;;;6.68;43.26
63321;BME280;49449;48.800;9.534;2022-11-20T09:22:58;98091.78;;;6.81;43.22
63321;BME280;49449;48.800;9.534;2022-11-20T09:25:26;98085.63;;;6.94;43.13
63321;BME280;49449;48.800;9.534;2022-11-20T09:27:56;98080.75;;;6.97;43.56
63321;BME280;49449;48.800;9.534;2022-11-20T09:30:25;98088.38;;;6.80;43.59
63321;BME280;49449;48.800;9.534;2022-11-20T09:32:54;98090.25;;;6.73;43.19
63321;BME280;49449;48.800;9.534;2022-11-20T09:35:21;98089.03;;;6.69;42.76
63321;BME280;49449;48.800;9.534;2022-11-20T09:37:49;98090.69;;;6.25;43.60
63321;BME280;49449;48.800;9.534;2022-11-20T09:40:20;98093.81;;;6.54;43.57
63321;BME280;49449;48.800;9.534;2022-11-20T09:42:54;98092.81;;;6.48;43.46
63321;BME280;49449;48.800;9.534;2022-11-20T09:45:34;98100.56;;;6.30;43.70
63321;BME280;49449;48.800;9.534;2022-11-20T09:48:30;98099.09;;;5.95;44.50
63321;BME280;49449;48.800;9.534;2022-11-20T09:51:07;98103.38;;;5.83;45.16
63321;BME280;49449;48.800;9.534;2022-11-20T09:53:44;98105.75;;;5.06;46.71
63321;BME280;49449;48.800;9.534;2022-11-20T09:56:14;98108.06;;;5.74;45.35
63321;BME280;49449;48.800;9.534;2022-11-20T09:58:45;98102.78;;;5.81;44.83
63321;BME280;49449;48.800;9.534;2022-11-20T10:01:17;98102.66;;;5.62;45.66
63321;BME280;49449;48.800;9.534;2022-11-20T10:03:52;98107.22;;;5.87;45.34
63321;BME280;49449;48.800;9.534;2022-11-20T10:06:26;98104.59;;;5.94;45.50
63321;BME280;49449;48.800;9.534;2022-11-20T10:09:04;98105.38;;;5.94;45.21
63321;BME280;49449;48.800;9.534;2022-11-20T10:11:44;98108.09;;;6.19;45.15
63321;BME280;49449;48.800;9.534;2022-11-20T10:14:22;98101.28;;;6.05;45.18
63321;BME280;49449;48.800;9.534;2022-11-20T10:17:02;98100.88;;;6.15;44.93
63321;BME280;49449;48.800;9.534;2022-11-20T10:19:35;98103.91;;;6.05;44.97
63321;BME280;49449;48.800;9.534;2022-11-20T10:22:20;98104.97;;;5.97;45.28
63321;BME280;49449;48.800;9.534;2022-11-20T10:24:55;98089.31;;;5.70;45.56
63321;BME280;49449;48.800;9.534;2022-11-20T10:27:48;98097.81;;;5.52;46.55
63321;BME280;49449;48.800;9.534;2022-11-20T10:30:19;98104.28;;;5.50;46.69
63321;BME280;49449;48.800;9.534;2022-11-20T10:32:52;98103.25;;;5.71;45.98
63321;BME280;49449;48.800;9.534;2022-11-20T10:35:24;98110.94;;;5.52;47.16
63321;BME280;49449;48.800;9.534;2022-11-20T10:37:57;98108.81;;;5.88;46.49
63321;BME280;49449;48.800;9.534;2022-11-20T10:40:27;98112.06;;;5.90;46.71
63321;BME280;49449;48.800;9.534;2022-11-20T10:42:59;98115.06;;;5.94;46.18
63321;BME280;49449;48.800;9.534;2022-11-20T10:45:39;98107.81;;;5.89;46.57
63321;BME280;49449;48.800;9.534;2022-11-20T10:48:19;98107.97;;;6.01;46.49
63321;BME280;49449;48.800;9.534;2022-11-20T10:51:06;98107.31;;;6.12;46.36
63321;BME280;49449;48.800;9.534;2022-11-20T10:53:45;98106.56;;;5.92;46.91
63321;BME280;49449;48.800;9.534;2022-11-20T10:56:21;98113.56;;;6.11;47.05
63321;BME280;49449;48.800;9.534;2022-11-20T10:59:05;98119.22;;;6.15;47.81
63321;BME280;49449;48.800;9.534;2022-11-20T11:01:40;98106.38;;;6.45;46.86
63321;BME280;49449;48.800;9.534;2022-11-20T11:04:32;98112.63;;;6.44;47.04
63321;BME280;49449;48.800;9.534;2022-11-20T11:07:07;98109.25;;;6.37;47.50
63321;BME280;49449;48.800;9.534;2022-11-20T11:09:41;98118.09;;;6.42;47.06
63321;BME280;49449;48.800;9.534;2022-11-20T11:12:10;98107.47;;;6.24;47.33
63321;BME280;49449;48.800;9.534;2022-11-20T11:14:46;98105.44;;;6.26;47.26
63321;BME280;49449;48.800;9.534;2022-11-20T11:17:26;98108.06;;;6.33;47.20
63321;BME280;49449;48.800;9.534;2022-11-20T11:20:05;98113.88;;;6.41;47.04
63321;BME280;49449;48.800;9.534;2022-11-20T11:22:43;98110.28;;;6.29;47.17
63321;BME280;49449;48.800;9.534;2022-11-20T11:25:20;98098.75;;;6.30;47.38
63321;BME280;49449;48.800;9.534;2022-11-20T11:27:49;98103.69;;;6.52;46.98
63321;BME280;49449;48.800;9.534;2022-11-20T11:30:19;98099.53;;;6.69;46.87
63321;BME280;49449;48.800;9.534;2022-11-20T11:32:47;98106.00;;;6.73;46.49
63321;BME280;49449;48.800;9.534;2022-11-20T11:35:23;98097.41;;;6.84;46.57
63321;BME280;49449;48.800;9.534;2022-11-20T11:37:52;98091.75;;;6.88;46.62
63321;BME280;49449;48.800;9.534;2022-11-20T11:40:22;98094.16;;;6.89;46.57
63321;BME280;49449;48.800;9.534;2022-11-20T11:42:57;98087.88;;;6.90;46.77
63321;BME280;49449;48.800;9.534;2022-11-20T11:45:26;98082.16;;;7.00;46.63
63321;BME280;49449;48.800;9.534;2022-11-20T11:47:55;98076.84;;;6.81;46.51
63321;BME280;49449;48.800;9.534;2022-11-20T11:50:27;98083.34;;;6.79;47.14
63321;BME280;49449;48.800;9.534;2022-11-20T11:53:07;98075.66;;;6.77;46.28
63321;BME280;49449;48.800;9.534;2022-11-20T11:55:40;98078.53;;;6.69;47.05
63321;BME280;49449;48.800;9.534;2022-11-20T11:58:16;98063.25;;;6.66;46.69
63321;BME280;49449;48.800;9.534;2022-11-20T12:00:51;98069.81;;;6.50;47.42
63321;BME280;49449;48.800;9.534;2022-11-20T12:03:27;98070.84;;;6.74;47.84
63321;BME280;49449;48.800;9.534;2022-11-20T12:06:01;98061.03;;;6.88;47.55
63321;BME280;49449;48.800;9.534;2022-11-20T12:08:35;98057.72;;;6.99;47.02
63321;BME280;49449;48.800;9.534;2022-11-20T12:11:11;98057.00;;;7.29;46.67
63321;BME280;49449;48.800;9.534;2022-11-20T12:13:45;98049.94;;;7.48;46.39
63321;BME280;49449;48.800;9.534;2022-11-20T12:16:18;98046.63;;;7.59;46.18
63321;BME280;49449;48.800;9.534;2022-11-20T12:18:49;98049.28;;;7.59;46.06
63321;BME280;49449;48.800;9.534;2022-11-20T12:21:29;98053.56;;;7.72;45.55
63321;BME280;49449;48.800;9.534;2022-11-20T12:24:10;98044.63;;;7.92;45.69
63321;BME280;49449;48.800;9.534;2022-11-20T12:26:51;98041.91;;;7.98;45.14
63321;BME280;49449;48.800;9.534;2022-11-20T12:29:31;98044.72;;;8.15;45.24
63321;BME280;49449;48.800;9.534;2022-11-20T12:32:19;98036.94;;;8.21;44.59
63321;BME280;49449;48.800;9.534;2022-11-20T12:35:00;98024.53;;;8.40;44.21
63321;BME280;49449;48.800;9.534;2022-11-20T12:37:41;98025.81;;;8.49;44.09
63321;BME280;49449;48.800;9.534;2022-11-20T12:40:28;98030.97;;;8.55;43.80
63321;BME280;49449;48.800;9.534;2022-11-20T12:43:06;98018.56;;;8.32;42.49
63321;BME280;49449;48.800;9.534;2022-11-20T12:46:06;98028.25;;;8.20;43.56
63321;BME280;49449;48.800;9.534;2022-11-20T12:48:41;98020.66;;;8.12;43.16
63321;BME280;49449;48.800;9.534;2022-11-20T12:51:24;98024.00;;;8.19;42.62
63321;BME280;49449;48.800;9.534;2022-11-20T12:54:11;98020.41;;;8.44;42.41
63321;BME280;49449;48.800;9.534;2022-11-20T12:56:50;98022.53;;;8.65;43.09
63321;BME280;49449;48.800;9.534;2022-11-20T12:59:33;98024.16;;;8.78;43.00
63321;BME280;49449;48.800;9.534;2022-11-20T13:02:20;98021.78;;;8.88;43.27
63321;BME280;49449;48.800;9.534;2022-11-20T13:05:24;98023.69;;;8.93;42.64
63321;BME280;49449;48.800;9.534;2022-11-20T13:07:56;98028.22;;;8.74;41.99
63321;BME280;49449;48.800;9.534;2022-11-20T13:10:33;98023.53;;;8.64;41.89
63321;BME280;49449;48.800;9.534;2022-11-20T13:13:10;98015.06;;;8.74;42.46
63321;BME280;49449;48.800;9.534;2022-11-20T13:15:48;98020.25;;;8.81;42.21
63321;BME280;49449;48.800;9.534;2022-11-20T13:18:19;98016.34;;;8.71;42.00
63321;BME280;49449;48.800;9.534;2022-11-20T13:20:47;98015.69;;;8.76;42.35
63321;BME280;49449;48.800;9.534;2022-11-20T13:23:25;98012.75;;;8.54;40.39
63321;BME280;49449;48.800;9.534;2022-11-20T13:26:05;98010.81;;;8.61;41.81
63321;BME280;49449;48.800;9.534;2022-11-20T13:28:34;98003.88;;;8.79;39.83
63321;BME280;49449;48.800;9.534;2022-11-20T13:31:02;98011.00;;;8.78;39.93
63321;BME280;49449;48.800;9.534;2022-11-20T13:33:32;98000.31;;;8.73;40.03